createdAt,value
2018-04-22T00:00:33.902Z,0
2018-04-22T00:01:55.441Z,0
2018-04-22T00:03:17.234Z,0
2018-04-22T00:04:39.291Z,0
2018-04-22T00:06:01.337Z,0
2018-04-22T00:07:23.145Z,0
2018-04-22T00:08:45.206Z,0
2018-04-22T00:10:07.290Z,0
2018-04-22T00:11:29.365Z,0
2018-04-22T00:12:51.163Z,0
2018-04-22T00:14:12.954Z,0
2018-04-22T00:15:34.760Z,0
2018-04-22T00:16:56.576Z,0
2018-04-22T00:18:18.367Z,0
2018-04-22T00:19:40.421Z,0
2018-04-22T00:21:02.538Z,0
2018-04-22T00:22:24.361Z,0
2018-04-22T00:23:46.436Z,0
2018-04-22T00:25:08.236Z,0
2018-04-22T00:26:30.320Z,0
2018-04-22T00:27:52.114Z,0
2018-04-22T00:29:13.913Z,0
2018-04-22T00:30:35.190Z,0
2018-04-22T00:31:57.253Z,0
2018-04-22T00:33:18.790Z,0
2018-04-22T00:34:40.864Z,0
2018-04-22T00:36:02.932Z,0
2018-04-22T00:37:24.981Z,0
2018-04-22T00:38:47.041Z,0
2018-04-22T00:40:09.103Z,0
2018-04-22T00:41:30.889Z,0
2018-04-22T00:42:52.681Z,0
2018-04-22T00:44:14.500Z,0
2018-04-22T00:45:36.564Z,0
2018-04-22T00:46:58.377Z,0
2018-04-22T00:48:20.472Z,0
2018-04-22T00:49:42.532Z,0
2018-04-22T00:51:04.059Z,0
2018-04-22T00:52:25.845Z,0
2018-04-22T00:53:47.645Z,0
2018-04-22T00:55:09.457Z,0
2018-04-22T00:56:31.246Z,0
2018-04-22T00:57:53.303Z,0
2018-04-22T00:59:15.355Z,0
2018-04-22T01:00:37.173Z,0
2018-04-22T01:01:58.983Z,0
2018-04-22T01:03:20.769Z,0
2018-04-22T01:04:42.831Z,0
2018-04-22T01:06:04.887Z,0
2018-04-22T01:07:26.950Z,0
2018-04-22T01:08:48.736Z,0
2018-04-22T01:10:10.551Z,0
2018-04-22T01:11:32.359Z,0
2018-04-22T01:12:54.426Z,0
2018-04-22T01:14:16.482Z,0
2018-04-22T01:15:38.524Z,0
2018-04-22T01:17:00.312Z,0
2018-04-22T01:18:22.371Z,0
2018-04-22T01:19:43.628Z,0
2018-04-22T01:21:05.176Z,0
2018-04-22T01:22:27.224Z,0
2018-04-22T01:23:49.034Z,0
2018-04-22T01:25:10.579Z,0
2018-04-22T01:26:32.646Z,0
2018-04-22T01:27:54.456Z,0
2018-04-22T01:29:16.508Z,0
2018-04-22T01:30:38.298Z,0
2018-04-22T01:32:00.090Z,0
2018-04-22T01:33:21.887Z,0
2018-04-22T01:34:43.933Z,0
2018-04-22T01:36:05.200Z,0
2018-04-22T01:37:26.739Z,0
2018-04-22T01:38:48.533Z,0
2018-04-22T01:40:10.079Z,0
2018-04-22T01:41:31.873Z,0
2018-04-22T01:42:53.944Z,0
2018-04-22T01:44:15.202Z,0
2018-04-22T01:45:36.989Z,0
2018-04-22T01:46:59.059Z,0
2018-04-22T01:48:20.874Z,0
2018-04-22T01:49:42.675Z,0
2018-04-22T01:51:04.473Z,0
2018-04-22T01:52:26.255Z,0
2018-04-22T01:53:47.525Z,0
2018-04-22T01:55:09.325Z,0
2018-04-22T01:56:31.142Z,0
2018-04-22T01:57:53.207Z,0
2018-04-22T01:59:14.993Z,0
2018-04-22T02:00:37.048Z,0
2018-04-22T02:01:58.875Z,0
2018-04-22T02:03:20.921Z,0
2018-04-22T02:04:42.205Z,0
2018-04-22T02:06:03.988Z,0
2018-04-22T02:07:26.055Z,0
2018-04-22T02:08:47.843Z,0
2018-04-22T02:10:09.640Z,0
2018-04-22T02:11:31.446Z,0
2018-04-22T02:12:53.492Z,0
2018-04-22T02:14:15.275Z,0
2018-04-22T02:15:37.067Z,0
2018-04-22T02:16:58.606Z,0
2018-04-22T02:18:20.141Z,0
2018-04-22T02:19:42.212Z,0
2018-04-22T02:21:04.265Z,0
2018-04-22T02:22:26.063Z,0
2018-04-22T02:23:47.329Z,0
2018-04-22T02:25:09.387Z,0
2018-04-22T02:26:31.456Z,0
2018-04-22T02:27:53.252Z,0
2018-04-22T02:29:15.347Z,0
2018-04-22T02:30:37.145Z,0
2018-04-22T02:31:59.204Z,0
2018-04-22T02:33:21.017Z,0
2018-04-22T02:34:42.811Z,0
2018-04-22T02:36:04.326Z,0
2018-04-22T02:37:26.124Z,0
2018-04-22T02:38:48.215Z,0
2018-04-22T02:40:10.027Z,0
2018-04-22T02:41:31.554Z,0
2018-04-22T02:42:53.608Z,0
2018-04-22T02:44:15.413Z,0
2018-04-22T02:45:36.676Z,0
2018-04-22T02:46:58.791Z,0
2018-04-22T02:48:20.863Z,0
2018-04-22T02:49:42.910Z,0
2018-04-22T02:51:04.975Z,0
2018-04-22T02:52:27.040Z,0
2018-04-22T02:53:48.581Z,0
2018-04-22T02:55:10.383Z,0
2018-04-22T02:56:32.464Z,0
2018-04-22T02:57:53.727Z,0
2018-04-22T02:59:15.762Z,0
2018-04-22T03:00:37.837Z,0
2018-04-22T03:01:59.897Z,0
2018-04-22T03:03:21.951Z,0
2018-04-22T03:04:43.746Z,0
2018-04-22T03:06:05.561Z,0
2018-04-22T03:07:27.611Z,0
2018-04-22T03:08:49.401Z,0
2018-04-22T03:10:11.195Z,0
2018-04-22T03:11:32.731Z,0
2018-04-22T03:12:54.786Z,0
2018-04-22T03:14:16.570Z,0
2018-04-22T03:15:38.645Z,0
2018-04-22T03:17:00.708Z,0
2018-04-22T03:18:22.493Z,0
2018-04-22T03:19:44.277Z,0
2018-04-22T03:21:06.336Z,0
2018-04-22T03:22:27.712Z,0
2018-04-22T03:23:49.505Z,0
2018-04-22T03:25:10.775Z,0
2018-04-22T03:26:32.308Z,0
2018-04-22T03:27:54.364Z,4
2018-04-22T03:29:15.896Z,4
2018-04-22T03:30:37.458Z,0
2018-04-22T03:31:59.268Z,4
2018-04-22T03:33:21.329Z,0
2018-04-22T03:34:43.387Z,4
2018-04-22T03:36:04.651Z,4
2018-04-22T03:37:26.435Z,4
2018-04-22T03:38:47.982Z,8
2018-04-22T03:40:09.771Z,8
2018-04-22T03:41:31.030Z,8
2018-04-22T03:42:52.858Z,12
2018-04-22T03:44:14.393Z,16
2018-04-22T03:45:35.929Z,20
2018-04-22T03:46:57.995Z,24
2018-04-22T03:48:19.255Z,32
2018-04-22T03:49:40.516Z,36
2018-04-22T03:51:02.296Z,44
2018-04-22T03:52:23.822Z,52
2018-04-22T03:53:45.880Z,64
2018-04-22T03:55:07.703Z,76
2018-04-22T03:56:29.494Z,92
2018-04-22T03:57:51.296Z,108
2018-04-22T03:59:13.335Z,128
2018-04-22T04:00:35.392Z,152
2018-04-22T04:01:56.661Z,176
2018-04-22T04:03:18.709Z,200
2018-04-22T04:04:40.240Z,232
2018-04-22T04:06:02.279Z,264
2018-04-22T04:07:24.050Z,300
2018-04-22T04:08:45.581Z,344
2018-04-22T04:10:07.362Z,384
2018-04-22T04:11:29.416Z,428
2018-04-22T04:12:50.938Z,472
2018-04-22T04:14:12.738Z,524
2018-04-22T04:15:34.535Z,584
2018-04-22T04:16:56.329Z,640
2018-04-22T04:18:18.392Z,704
2018-04-22T04:19:40.211Z,768
2018-04-22T04:21:01.997Z,832
2018-04-22T04:22:24.048Z,904
2018-04-22T04:23:45.575Z,988
2018-04-22T04:25:07.379Z,1076
2018-04-22T04:26:28.909Z,1176
2018-04-22T04:27:50.449Z,1292
2018-04-22T04:29:12.248Z,1408
2018-04-22T04:30:33.524Z,1528
2018-04-22T04:31:55.061Z,1652
2018-04-22T04:33:16.856Z,1776
2018-04-22T04:34:38.917Z,1904
2018-04-22T04:36:00.977Z,2016
2018-04-22T04:37:22.832Z,2116
2018-04-22T04:38:44.631Z,2228
2018-04-22T04:40:06.695Z,2352
2018-04-22T04:41:28.746Z,2484
2018-04-22T04:42:50.794Z,2612
2018-04-22T04:44:12.316Z,2740
2018-04-22T04:45:33.591Z,2880
2018-04-22T04:46:55.679Z,3016
2018-04-22T04:48:17.474Z,3144
2018-04-22T04:49:39.271Z,3276
2018-04-22T04:51:01.321Z,3404
2018-04-22T04:52:22.868Z,3528
2018-04-22T04:53:44.655Z,3648
2018-04-22T04:55:06.711Z,3736
2018-04-22T04:56:28.765Z,3812
2018-04-22T04:57:50.829Z,3960
2018-04-22T04:59:12.946Z,4192
2018-04-22T05:00:34.526Z,4376
2018-04-22T05:01:56.579Z,4540
2018-04-22T05:03:18.637Z,4696
2018-04-22T05:04:40.427Z,4848
2018-04-22T05:06:02.486Z,5008
2018-04-22T05:07:24.879Z,5168
2018-04-22T05:08:47.071Z,5332
2018-04-22T05:10:08.868Z,5492
2018-04-22T05:11:30.685Z,5652
2018-04-22T05:12:52.735Z,5824
2018-04-22T05:14:14.323Z,6004
2018-04-22T05:15:36.115Z,6184
2018-04-22T05:16:58.176Z,6388
2018-04-22T05:18:19.984Z,6600
2018-04-22T05:19:41.794Z,6836
2018-04-22T05:21:03.845Z,7160
2018-04-22T05:22:25.636Z,7044
2018-04-22T05:23:47.170Z,7536
2018-04-22T05:25:08.699Z,8268
2018-04-22T05:26:30.515Z,9304
2018-04-22T05:27:51.527Z,13780
2018-04-22T05:29:13.593Z,15552
2018-04-22T05:30:34.612Z,18656
2018-04-22T05:31:56.416Z,20768
2018-04-22T05:33:18.221Z,21856
2018-04-22T05:34:40.025Z,21152
2018-04-22T05:36:01.828Z,21536
2018-04-22T05:37:23.641Z,24896
2018-04-22T05:38:45.504Z,25792
2018-04-22T05:40:07.323Z,26272
2018-04-22T05:41:29.391Z,26880
2018-04-22T05:42:51.256Z,25952
2018-04-22T05:44:12.806Z,26080
2018-04-22T05:45:34.875Z,28320
2018-04-22T05:46:56.678Z,30976
2018-04-22T05:48:18.490Z,30080
2018-04-22T05:49:40.582Z,31360
2018-04-22T05:51:02.649Z,31680
2018-04-22T05:52:24.739Z,30272
2018-04-22T05:53:46.563Z,30432
2018-04-22T05:55:08.735Z,29728
2018-04-22T05:56:30.809Z,27968
2018-04-22T05:57:52.891Z,29216
2018-04-22T05:59:14.970Z,31104
2018-04-22T06:00:36.837Z,30016
2018-04-22T06:01:58.645Z,31424
2018-04-22T06:03:20.448Z,32704
2018-04-22T06:04:42.251Z,33568
2018-04-22T06:06:04.065Z,34368
2018-04-22T06:07:25.885Z,32992
2018-04-22T06:08:48.015Z,31584
2018-04-22T06:10:09.846Z,31648
2018-04-22T06:11:31.681Z,31648
2018-04-22T06:12:53.538Z,31360
2018-04-22T06:14:15.350Z,30752
2018-04-22T06:15:37.420Z,30528
2018-04-22T06:16:58.964Z,33792
2018-04-22T06:18:21.027Z,35904
2018-04-22T06:19:42.864Z,37344
2018-04-22T06:21:04.669Z,38208
2018-04-22T06:22:26.753Z,39008
2018-04-22T06:23:48.580Z,39904
2018-04-22T06:25:10.667Z,41312
2018-04-22T06:26:32.742Z,41888
2018-04-22T06:27:54.834Z,41504
2018-04-22T06:29:16.946Z,42016
2018-04-22T06:30:39.043Z,42336
2018-04-22T06:32:00.889Z,44608
2018-04-22T06:33:22.969Z,42176
2018-04-22T06:34:45.052Z,40544
2018-04-22T06:36:07.164Z,38400
2018-04-22T06:37:29.268Z,39328
2018-04-22T06:38:50.818Z,39488
2018-04-22T06:40:12.702Z,44096
2018-04-22T06:41:34.879Z,44448
2018-04-22T06:42:56.984Z,38656
2018-04-22T06:44:19.124Z,44896
2018-04-22T06:45:41.246Z,39328
2018-04-22T06:47:03.091Z,43136
2018-04-22T06:48:24.918Z,45952
2018-04-22T06:49:46.785Z,45664
2018-04-22T06:51:08.874Z,44288
2018-04-22T06:52:30.977Z,38720
2018-04-22T06:53:53.075Z,49376
2018-04-22T06:55:15.171Z,34368
2018-04-22T06:56:37.243Z,37216
2018-04-22T06:57:59.345Z,41216
2018-04-22T06:59:21.188Z,36224
2018-04-22T07:00:43.018Z,30272
2018-04-22T07:02:05.307Z,25184
2018-04-22T07:03:27.133Z,19968
2018-04-22T07:04:48.961Z,21120
2018-04-22T07:06:11.070Z,22528
2018-04-22T07:07:33.138Z,21984
2018-04-22T07:08:54.946Z,20352
2018-04-22T07:10:17.038Z,17920
2018-04-22T07:11:38.876Z,17824
2018-04-22T07:13:00.959Z,16832
2018-04-22T07:14:22.782Z,18720
2018-04-22T07:15:44.335Z,20992
2018-04-22T07:17:05.639Z,21152
2018-04-22T07:18:27.187Z,21472
2018-04-22T07:19:48.776Z,18784
2018-04-22T07:21:10.088Z,17952
2018-04-22T07:22:32.206Z,18528
2018-04-22T07:23:54.314Z,19200
2018-04-22T07:25:16.229Z,18976
2018-04-22T07:26:38.314Z,18176
2018-04-22T07:28:00.125Z,15744
2018-04-22T07:29:22.222Z,14796
2018-04-22T07:30:44.063Z,15176
2018-04-22T07:32:05.913Z,14464
2018-04-22T07:33:27.726Z,14040
2018-04-22T07:34:49.582Z,14396
2018-04-22T07:36:10.868Z,12500
2018-04-22T07:37:32.679Z,14656
2018-04-22T07:38:54.552Z,14612
2018-04-22T07:40:16.402Z,14256
2018-04-22T07:41:38.516Z,14444
2018-04-22T07:43:00.613Z,14140
2018-04-22T07:44:22.182Z,13912
2018-04-22T07:45:44.022Z,13884
2018-04-22T07:47:05.854Z,13544
2018-04-22T07:48:27.445Z,13100
2018-04-22T07:49:49.329Z,12872
2018-04-22T07:51:11.451Z,12188
2018-04-22T07:52:33.526Z,10888
2018-04-22T07:53:55.361Z,10252
2018-04-22T07:55:17.450Z,9716
2018-04-22T07:56:39.537Z,9604
2018-04-22T07:58:01.373Z,9588
2018-04-22T07:59:23.461Z,9620
2018-04-22T08:00:45.564Z,9712
2018-04-22T08:02:07.392Z,9768
2018-04-22T08:03:29.223Z,9756
2018-04-22T08:04:51.278Z,9704
2018-04-22T08:06:13.121Z,9668
2018-04-22T08:07:34.686Z,9492
2018-04-22T08:08:56.504Z,9316
2018-04-22T08:10:18.324Z,9288
2018-04-22T08:11:40.391Z,9276
2018-04-22T08:13:02.505Z,9240
2018-04-22T08:14:24.602Z,9192
2018-04-22T08:15:46.685Z,9240
2018-04-22T08:17:08.764Z,9216
2018-04-22T08:18:30.885Z,9104
2018-04-22T08:19:52.716Z,9052
2018-04-22T08:21:14.783Z,8796
2018-04-22T08:22:36.361Z,8936
2018-04-22T08:23:58.177Z,8824
2018-04-22T08:25:20.299Z,8608
2018-04-22T08:26:42.110Z,8556
2018-04-22T08:28:04.181Z,8520
2018-04-22T08:29:26.013Z,8540
2018-04-22T08:30:48.101Z,8608
2018-04-22T08:32:09.937Z,8660
2018-04-22T08:33:31.899Z,8708
2018-04-22T08:34:53.995Z,8656
2018-04-22T08:36:16.105Z,8560
2018-04-22T08:37:37.673Z,8424
2018-04-22T08:38:59.753Z,8380
2018-04-22T08:40:21.829Z,8372
2018-04-22T08:41:43.665Z,8360
2018-04-22T08:43:05.491Z,8348
2018-04-22T08:44:27.056Z,8340
2018-04-22T08:45:48.882Z,8472
2018-04-22T08:47:10.691Z,8680
2018-04-22T08:48:32.761Z,8824
2018-04-22T08:49:54.565Z,8908
2018-04-22T08:51:16.401Z,8948
2018-04-22T08:52:38.493Z,8832
2018-04-22T08:54:00.595Z,8620
2018-04-22T08:55:22.421Z,8352
2018-04-22T08:56:44.289Z,8344
2018-04-22T08:58:06.412Z,8556
2018-04-22T08:59:28.255Z,8652
2018-04-22T09:00:50.329Z,8676
2018-04-22T09:02:12.587Z,8720
2018-04-22T09:03:34.177Z,8772
2018-04-22T09:04:56.009Z,8824
2018-04-22T09:06:17.836Z,8848
2018-04-22T09:07:39.383Z,8588
2018-04-22T09:09:01.210Z,8164
2018-04-22T09:10:23.276Z,8048
2018-04-22T09:11:45.376Z,7948
2018-04-22T09:13:07.182Z,7828
2018-04-22T09:14:29.016Z,8044
2018-04-22T09:15:50.824Z,9004
2018-04-22T09:17:12.386Z,9708
2018-04-22T09:18:34.466Z,10316
2018-04-22T09:19:55.784Z,11360
2018-04-22T09:21:17.611Z,12960
2018-04-22T09:22:39.448Z,15072
2018-04-22T09:24:01.295Z,16256
2018-04-22T09:25:23.405Z,16348
2018-04-22T09:26:44.983Z,15620
2018-04-22T09:28:06.659Z,15312
2018-04-22T09:29:28.748Z,15680
2018-04-22T09:30:50.052Z,16032
2018-04-22T09:32:12.130Z,16976
2018-04-22T09:33:33.965Z,17060
2018-04-22T09:34:56.051Z,16140
2018-04-22T09:36:18.199Z,14800
2018-04-22T09:37:40.268Z,13824
2018-04-22T09:39:02.379Z,13084
2018-04-22T09:40:24.470Z,12644
2018-04-22T09:41:46.585Z,12428
2018-04-22T09:43:08.748Z,12352
2018-04-22T09:44:30.929Z,12368
2018-04-22T09:45:53.076Z,12548
2018-04-22T09:47:15.034Z,12808
2018-04-22T09:48:37.169Z,13136
2018-04-22T09:49:59.108Z,13876
2018-04-22T09:51:21.186Z,14556
2018-04-22T09:52:43.309Z,14996
2018-04-22T09:54:05.416Z,14472
2018-04-22T09:55:27.230Z,13256
2018-04-22T09:56:49.311Z,12640
2018-04-22T09:58:11.415Z,14224
2018-04-22T09:59:33.247Z,16240
2018-04-22T10:00:55.336Z,17344
2018-04-22T10:02:17.184Z,18080
2018-04-22T10:03:39.003Z,18112
2018-04-22T10:05:01.190Z,17440
2018-04-22T10:06:23.051Z,16556
2018-04-22T10:07:44.886Z,16088
2018-04-22T10:09:07.002Z,16388
2018-04-22T10:10:28.818Z,16832
2018-04-22T10:11:50.372Z,18400
2018-04-22T10:13:12.200Z,21056
2018-04-22T10:14:33.746Z,22592
2018-04-22T10:15:55.626Z,23328
2018-04-22T10:17:17.479Z,22880
2018-04-22T10:18:39.605Z,24384
2018-04-22T10:20:01.137Z,26400
2018-04-22T10:21:23.230Z,27744
2018-04-22T10:22:45.304Z,26688
2018-04-22T10:24:07.125Z,24512
2018-04-22T10:25:28.936Z,23040
2018-04-22T10:26:50.771Z,21888
2018-04-22T10:28:12.642Z,21312
2018-04-22T10:29:34.201Z,21184
2018-04-22T10:30:56.289Z,22752
2018-04-22T10:32:18.102Z,23072
2018-04-22T10:33:40.201Z,21440
2018-04-22T10:35:02.155Z,21728
2018-04-22T10:36:24.063Z,22496
2018-04-22T10:37:46.244Z,22336
2018-04-22T10:39:08.089Z,22496
2018-04-22T10:40:30.187Z,22208
2018-04-22T10:41:51.992Z,20672
2018-04-22T10:43:13.827Z,19808
2018-04-22T10:44:35.636Z,17760
2018-04-22T10:45:57.469Z,16996
2018-04-22T10:47:19.035Z,17504
2018-04-22T10:48:41.115Z,17536
2018-04-22T10:50:03.243Z,17536
2018-04-22T10:51:25.348Z,19232
2018-04-22T10:52:47.187Z,24416
2018-04-22T10:54:09.031Z,25696
2018-04-22T10:55:30.877Z,26112
2018-04-22T10:56:52.956Z,25696
2018-04-22T10:58:15.287Z,22432
2018-04-22T10:59:37.369Z,18976
2018-04-22T11:00:59.460Z,19008
2018-04-22T11:02:21.605Z,17116
2018-04-22T11:03:43.709Z,15660
2018-04-22T11:05:05.559Z,15296
2018-04-22T11:06:27.681Z,16000
2018-04-22T11:07:49.517Z,15788
2018-04-22T11:09:11.095Z,15356
2018-04-22T11:10:32.930Z,15136
2018-04-22T11:11:55.177Z,15084
2018-04-22T11:13:17.039Z,15396
2018-04-22T11:14:38.864Z,15728
2018-04-22T11:16:00.945Z,15552
2018-04-22T11:17:23.027Z,15600
2018-04-22T11:18:45.115Z,16260
2018-04-22T11:20:07.212Z,16388
2018-04-22T11:21:29.046Z,15552
2018-04-22T11:22:51.168Z,14488
2018-04-22T11:24:13.263Z,14116
2018-04-22T11:25:35.344Z,14236
2018-04-22T11:26:57.445Z,13864
2018-04-22T11:28:19.285Z,13552
2018-04-22T11:29:41.125Z,12900
2018-04-22T11:31:02.964Z,12132
2018-04-22T11:32:25.057Z,11612
2018-04-22T11:33:47.156Z,11264
2018-04-22T11:35:08.975Z,10708
2018-04-22T11:36:30.556Z,10676
2018-04-22T11:37:52.662Z,12372
2018-04-22T11:39:14.760Z,15064
2018-04-22T11:40:36.899Z,16720
2018-04-22T11:41:58.992Z,18880
2018-04-22T11:43:20.716Z,20192
2018-04-22T11:44:42.548Z,20256
2018-04-22T11:46:04.388Z,19584
2018-04-22T11:47:26.509Z,18048
2018-04-22T11:48:48.368Z,17312
2018-04-22T11:50:10.203Z,17696
2018-04-22T11:51:32.300Z,17664
2018-04-22T11:52:54.399Z,17600
2018-04-22T11:54:16.235Z,18080
2018-04-22T11:55:38.060Z,16008
2018-04-22T11:57:00.147Z,13860
2018-04-22T11:58:21.965Z,12484
2018-04-22T11:59:44.066Z,11640
2018-04-22T12:01:06.167Z,11200
2018-04-22T12:02:28.090Z,10832
2018-04-22T12:03:50.164Z,10536
2018-04-22T12:05:12.003Z,10324
2018-04-22T12:06:33.973Z,10156
2018-04-22T12:07:56.104Z,10004
2018-04-22T12:09:17.934Z,9896
2018-04-22T12:10:40.048Z,9796
2018-04-22T12:12:01.896Z,9716
2018-04-22T12:13:23.992Z,9672
2018-04-22T12:14:46.187Z,9600
2018-04-22T12:16:08.332Z,9484
2018-04-22T12:17:30.162Z,9364
2018-04-22T12:18:52.277Z,9248
2018-04-22T12:20:14.392Z,9140
2018-04-22T12:21:36.507Z,9072
2018-04-22T12:22:58.617Z,9088
2018-04-22T12:24:20.725Z,9160
2018-04-22T12:25:42.827Z,9148
2018-04-22T12:27:04.973Z,9016
2018-04-22T12:28:27.080Z,9036
2018-04-22T12:29:49.199Z,9140
2018-04-22T12:31:11.284Z,9248
2018-04-22T12:32:33.428Z,9240
2018-04-22T12:33:55.262Z,9176
2018-04-22T12:35:17.384Z,9108
2018-04-22T12:36:39.200Z,9020
2018-04-22T12:38:01.431Z,8932
2018-04-22T12:39:23.543Z,9008
2018-04-22T12:40:45.100Z,9052
2018-04-22T12:42:06.937Z,9028
2018-04-22T12:43:29.044Z,8996
2018-04-22T12:44:50.871Z,8928
2018-04-22T12:46:12.702Z,8840
2018-04-22T12:47:34.514Z,8752
2018-04-22T12:48:56.105Z,8640
2018-04-22T12:50:17.944Z,8512
2018-04-22T12:51:40.050Z,8384
2018-04-22T12:53:02.171Z,8272
2018-04-22T12:54:23.998Z,8144
2018-04-22T12:55:46.091Z,7996
2018-04-22T12:57:08.193Z,7944
2018-04-22T12:58:30.013Z,7852
2018-04-22T12:59:51.862Z,7520
2018-04-22T13:01:13.934Z,7556
2018-04-22T13:02:36.035Z,7732
2018-04-22T13:03:58.138Z,7800
2018-04-22T13:05:19.980Z,7752
2018-04-22T13:06:41.534Z,7676
2018-04-22T13:08:03.103Z,7604
2018-04-22T13:09:25.218Z,7548
2018-04-22T13:10:46.796Z,7488
2018-04-22T13:12:09.075Z,7456
2018-04-22T13:13:30.652Z,7432
2018-04-22T13:14:52.513Z,7384
2018-04-22T13:16:14.330Z,7376
2018-04-22T13:17:35.896Z,7384
2018-04-22T13:18:57.793Z,7336
2018-04-22T13:20:19.624Z,7296
2018-04-22T13:21:41.737Z,7264
2018-04-22T13:23:03.820Z,7272
2018-04-22T13:24:25.418Z,7312
2018-04-22T13:25:47.660Z,7360
2018-04-22T13:27:09.482Z,7424
2018-04-22T13:28:31.332Z,7424
2018-04-22T13:29:53.420Z,7400
2018-04-22T13:31:15.715Z,7368
2018-04-22T13:32:37.545Z,7324
2018-04-22T13:33:59.401Z,7264
2018-04-22T13:35:21.221Z,7164
2018-04-22T13:36:43.070Z,7092
2018-04-22T13:38:05.192Z,7040
2018-04-22T13:39:27.302Z,6960
2018-04-22T13:40:48.584Z,6876
2018-04-22T13:42:10.404Z,6796
2018-04-22T13:43:32.235Z,6736
2018-04-22T13:44:54.552Z,6680
2018-04-22T13:46:16.431Z,6640
2018-04-22T13:47:38.290Z,6628
2018-04-22T13:49:00.298Z,6600
2018-04-22T13:50:22.383Z,6548
2018-04-22T13:51:44.202Z,6508
2018-04-22T13:53:06.010Z,6484
2018-04-22T13:54:28.205Z,6512
2018-04-22T13:55:50.086Z,6520
2018-04-22T13:57:12.221Z,6500
2018-04-22T13:58:34.057Z,6480
2018-04-22T13:59:56.148Z,6508
2018-04-22T14:01:18.244Z,6520
2018-04-22T14:02:40.469Z,6508
2018-04-22T14:04:02.568Z,6520
2018-04-22T14:05:24.679Z,6520
2018-04-22T14:06:46.788Z,6476
2018-04-22T14:08:08.624Z,6412
2018-04-22T14:09:30.753Z,6356
2018-04-22T14:10:52.583Z,6320
2018-04-22T14:12:14.680Z,6300
2018-04-22T14:13:36.496Z,6312
2018-04-22T14:14:58.398Z,6276
2018-04-22T14:16:20.491Z,6232
2018-04-22T14:17:42.312Z,6180
2018-04-22T14:19:04.173Z,6148
2018-04-22T14:20:26.303Z,6148
2018-04-22T14:21:48.150Z,6172
2018-04-22T14:23:09.972Z,6200
2018-04-22T14:24:32.078Z,6224
2018-04-22T14:25:54.166Z,6244
2018-04-22T14:27:16.261Z,6296
2018-04-22T14:28:38.104Z,6356
2018-04-22T14:30:00.257Z,6340
2018-04-22T14:31:22.384Z,6332
2018-04-22T14:32:44.220Z,6296
2018-04-22T14:34:06.332Z,6312
2018-04-22T14:35:28.438Z,6320
2018-04-22T14:36:50.301Z,6292
2018-04-22T14:38:12.317Z,6272
2018-04-22T14:39:34.136Z,6252
2018-04-22T14:40:56.283Z,6256
2018-04-22T14:42:18.444Z,6256
2018-04-22T14:43:40.293Z,6256
2018-04-22T14:45:02.306Z,6296
2018-04-22T14:46:24.415Z,6336
2018-04-22T14:47:46.236Z,6044
2018-04-22T14:49:08.332Z,5432
2018-04-22T14:50:30.444Z,5648
2018-04-22T14:51:52.570Z,6024
2018-04-22T14:53:14.688Z,6388
2018-04-22T14:54:35.991Z,6508
2018-04-22T14:55:57.808Z,6636
2018-04-22T14:57:19.884Z,6648
2018-04-22T14:58:41.713Z,6608
2018-04-22T15:00:03.746Z,6608
2018-04-22T15:01:25.893Z,6616
2018-04-22T15:02:48.071Z,6640
2018-04-22T15:04:10.485Z,6620
2018-04-22T15:05:33.037Z,6596
2018-04-22T15:06:55.494Z,6596
2018-04-22T15:08:17.686Z,6604
2018-04-22T15:09:39.791Z,6604
2018-04-22T15:11:02.284Z,6584
2018-04-22T15:12:24.368Z,6604
2018-04-22T15:13:46.651Z,6624
2018-04-22T15:15:08.481Z,6660
2018-04-22T15:16:30.305Z,6700
2018-04-22T15:17:52.139Z,6732
2018-04-22T15:19:14.227Z,6788
2018-04-22T15:20:36.341Z,6792
2018-04-22T15:21:58.455Z,6804
2018-04-22T15:23:19.747Z,6796
2018-04-22T15:24:41.590Z,6792
2018-04-22T15:26:03.689Z,6812
2018-04-22T15:27:25.816Z,6864
2018-04-22T15:28:47.680Z,6836
2018-04-22T15:30:09.773Z,6792
2018-04-22T15:31:31.924Z,6756
2018-04-22T15:32:54.041Z,6728
2018-04-22T15:34:16.128Z,6708
2018-04-22T15:35:37.958Z,6720
2018-04-22T15:36:59.785Z,6704
2018-04-22T15:38:21.616Z,6660
2018-04-22T15:39:43.447Z,6620
2018-04-22T15:41:05.544Z,6652
2018-04-22T15:42:27.383Z,6668
2018-04-22T15:43:49.475Z,6616
2018-04-22T15:45:11.573Z,6576
2018-04-22T15:46:33.700Z,6544
2018-04-22T15:47:55.300Z,6496
2018-04-22T15:49:16.891Z,6460
2018-04-22T15:50:39.056Z,6428
2018-04-22T15:52:01.232Z,6400
2018-04-22T15:53:23.130Z,6428
2018-04-22T15:54:45.274Z,6448
2018-04-22T15:56:07.111Z,6452
2018-04-22T15:57:29.245Z,6432
2018-04-22T15:58:51.354Z,6408
2018-04-22T16:00:13.469Z,6372
2018-04-22T16:01:35.329Z,6376
2018-04-22T16:02:57.208Z,6408
2018-04-22T16:04:19.065Z,6432
2018-04-22T16:05:40.934Z,6412
2018-04-22T16:07:02.754Z,6420
2018-04-22T16:08:24.361Z,6408
2018-04-22T16:09:45.943Z,6368
2018-04-22T16:11:08.042Z,6328
2018-04-22T16:12:30.102Z,6256
2018-04-22T16:13:52.208Z,6184
2018-04-22T16:15:14.080Z,6172
2018-04-22T16:16:36.191Z,6188
2018-04-22T16:17:58.291Z,6188
2018-04-22T16:19:20.140Z,6184
2018-04-22T16:20:42.245Z,6160
2018-04-22T16:22:04.383Z,6132
2018-04-22T16:23:26.499Z,6088
2018-04-22T16:24:48.620Z,6056
2018-04-22T16:26:10.469Z,6020
2018-04-22T16:27:32.339Z,5964
2018-04-22T16:28:54.389Z,5888
2018-04-22T16:30:16.237Z,5856
2018-04-22T16:31:38.352Z,5832
2018-04-22T16:33:00.475Z,5812
2018-04-22T16:34:22.578Z,5768
2018-04-22T16:35:44.823Z,5768
2018-04-22T16:37:06.946Z,5728
2018-04-22T16:38:28.779Z,5680
2018-04-22T16:39:50.605Z,5568
2018-04-22T16:41:12.442Z,5408
2018-04-22T16:42:34.545Z,5308
2018-04-22T16:43:56.662Z,5232
2018-04-22T16:45:18.246Z,5284
2018-04-22T16:46:40.143Z,5344
2018-04-22T16:48:01.991Z,5348
2018-04-22T16:49:23.568Z,5296
2018-04-22T16:50:45.463Z,5268
2018-04-22T16:52:07.322Z,5232
2018-04-22T16:53:29.452Z,5192
2018-04-22T16:54:51.580Z,5112
2018-04-22T16:56:13.546Z,4992
2018-04-22T16:57:35.729Z,4676
2018-04-22T16:58:57.361Z,4204
2018-04-22T17:00:19.194Z,3696
2018-04-22T17:01:41.046Z,3260
2018-04-22T17:03:02.910Z,2952
2018-04-22T17:04:24.479Z,2728
2018-04-22T17:05:46.309Z,2560
2018-04-22T17:07:07.912Z,2432
2018-04-22T17:08:30.061Z,2328
2018-04-22T17:09:52.244Z,2244
2018-04-22T17:11:13.827Z,2184
2018-04-22T17:12:35.747Z,2132
2018-04-22T17:13:57.596Z,2084
2018-04-22T17:15:19.780Z,2056
2018-04-22T17:16:41.891Z,2044
2018-04-22T17:18:03.450Z,2056
2018-04-22T17:19:25.344Z,2084
2018-04-22T17:20:47.188Z,2140
2018-04-22T17:22:09.321Z,2224
2018-04-22T17:23:31.476Z,2352
2018-04-22T17:24:53.670Z,2504
2018-04-22T17:26:15.503Z,2660
2018-04-22T17:27:37.085Z,2768
2018-04-22T17:28:59.185Z,2824
2018-04-22T17:30:21.314Z,2844
2018-04-22T17:31:43.403Z,2812
2018-04-22T17:33:05.259Z,2720
2018-04-22T17:34:27.391Z,2612
2018-04-22T17:35:49.489Z,2464
2018-04-22T17:37:11.351Z,2268
2018-04-22T17:38:33.460Z,2072
2018-04-22T17:39:55.644Z,1900
2018-04-22T17:41:17.776Z,1784
2018-04-22T17:42:39.888Z,1720
2018-04-22T17:44:02.003Z,1684
2018-04-22T17:45:24.138Z,1668
2018-04-22T17:46:46.248Z,1668
2018-04-22T17:48:08.365Z,1680
2018-04-22T17:49:30.207Z,1688
2018-04-22T17:50:52.061Z,1668
2018-04-22T17:52:14.141Z,1624
2018-04-22T17:53:35.989Z,1520
2018-04-22T17:54:58.163Z,1392
2018-04-22T17:56:20.336Z,1260
2018-04-22T17:57:42.211Z,1144
2018-04-22T17:59:04.403Z,1048
2018-04-22T18:00:26.285Z,972
2018-04-22T18:01:48.817Z,896
2018-04-22T18:03:10.954Z,844
2018-04-22T18:04:33.084Z,796
2018-04-22T18:05:54.944Z,752
2018-04-22T18:07:17.034Z,712
2018-04-22T18:08:38.918Z,676
2018-04-22T18:10:00.794Z,640
2018-04-22T18:11:22.977Z,604
2018-04-22T18:12:45.073Z,568
2018-04-22T18:14:06.907Z,528
2018-04-22T18:15:29.062Z,496
2018-04-22T18:16:50.382Z,460
2018-04-22T18:18:12.492Z,424
2018-04-22T18:19:34.345Z,392
2018-04-22T18:20:56.484Z,360
2018-04-22T18:22:18.603Z,328
2018-04-22T18:23:40.740Z,300
2018-04-22T18:25:02.337Z,280